Terminal Aerodrome Forecast
Issued by NWS

Home | Current Version | Previous Version | Text Only | Print | Product List | Glossary On
Versions: 1 2 3 4 5 6 7 8 9 10 11 12 13 14 15 16 17
000
FTUS45 KGJT 240537
TAFDRO
TAF
KDRO 240537Z 2406/2506 03004KT P6SM FEW110
     FM240800 VRB03KT P6SM FEW250
     FM241000 32005KT P6SM FEW250
     FM242000 28015G25KT P6SM FEW250
     FM250100 33010KT P6SM FEW200=

USA.gov is the U.S. government's official web portal to all federal, state and local government web resources and services.